Terminal Aerodrome Forecast
Issued by NWS Upton, NY

Home | Current Version | Previous Version | Text Only | Print | Product List | Glossary On
Versions: 1 2 3 4 5 6 7 8 9 10 11 12 13 14 15 16 17 18 19 20 21 22 23 24 25 26 27
000
FTUS41 KOKX 201400 AAB
TAFBDR
TAF AMD
KBDR 201438Z 2015/2112 16011KT P6SM FEW030 BKN070
     FM201900 17012G18KT P6SM SCT040
     FM210000 17008KT P6SM BKN040
     FM210300 13007KT P6SM BKN025
     FM210800 13005KT 6SM BR BKN015=

USA.gov is the U.S. government's official web portal to all federal, state and local government web resources and services.